createdAt,value
2023-02-27T00:02:08.160Z,95601.31
2023-02-27T00:04:34.546Z,95591.47
2023-02-27T00:07:00.945Z,95587.78
2023-02-27T00:09:27.300Z,95587.88
2023-02-27T00:11:53.638Z,95587.16
2023-02-27T00:14:20.003Z,95599.66
2023-02-27T00:16:46.346Z,95593.00
2023-02-27T00:19:12.729Z,95588.22
2023-02-27T00:21:39.080Z,95616.25
2023-02-27T00:24:05.466Z,95605.63
2023-02-27T00:26:31.852Z,95604.91
2023-02-27T00:28:58.246Z,95606.69
2023-02-27T00:31:24.936Z,95612.19
2023-02-27T00:33:51.567Z,95605.59
2023-02-27T00:36:17.903Z,95603.91
2023-02-27T00:38:44.245Z,95611.25
2023-02-27T00:41:10.574Z,95608.69
2023-02-27T00:43:36.931Z,95612.72
2023-02-27T00:46:03.352Z,95638.25
2023-02-27T00:48:29.727Z,95613.25
2023-02-27T00:50:56.082Z,95619.25
2023-02-27T00:53:22.431Z,95626.03
2023-02-27T00:55:48.812Z,95628.81
2023-02-27T00:58:15.202Z,95621.56
2023-02-27T01:00:41.615Z,95632.34
2023-02-27T01:03:08.011Z,95622.38
2023-02-27T01:05:34.398Z,95625.13
2023-02-27T01:08:00.801Z,95620.59
2023-02-27T01:10:27.195Z,95619.16
2023-02-27T01:12:53.552Z,95631.66
2023-02-27T01:15:19.941Z,95633.47
2023-02-27T01:17:46.330Z,95616.72
2023-02-27T01:20:12.685Z,95632.47
2023-02-27T01:22:39.020Z,95622.97
2023-02-27T01:25:05.406Z,95619.88
2023-02-27T01:27:31.761Z,95637.53
2023-02-27T01:29:58.161Z,95629.53
2023-02-27T01:32:24.618Z,95644.63
2023-02-27T01:34:51.039Z,95646.81
2023-02-27T01:37:17.634Z,95654.28
2023-02-27T01:39:44.098Z,95637.69
2023-02-27T01:42:12.928Z,95638.22
2023-02-27T01:44:39.513Z,95647.72
2023-02-27T01:47:05.908Z,95643.72
2023-02-27T01:49:32.272Z,95650.72
2023-02-27T01:51:58.647Z,95665.81
2023-02-27T01:54:24.994Z,95652.94
2023-02-27T01:56:51.344Z,95640.69
2023-02-27T01:59:17.724Z,95651.81
2023-02-27T02:01:44.138Z,95650.81
2023-02-27T02:04:10.511Z,95638.72
2023-02-27T02:06:36.919Z,95652.41
2023-02-27T02:09:03.320Z,95656.59
2023-02-27T02:11:29.679Z,95671.38
2023-02-27T02:13:56.063Z,95668.13
2023-02-27T02:16:22.511Z,95665.00
2023-02-27T02:18:48.906Z,95654.53
2023-02-27T02:21:15.309Z,95651.44
2023-02-27T02:23:41.654Z,95657.38
2023-02-27T02:26:08.021Z,95643.19
2023-02-27T02:28:34.365Z,95651.88
2023-02-27T02:31:00.818Z,95651.09
2023-02-27T02:33:27.220Z,95641.41
2023-02-27T02:35:53.618Z,95649.03
2023-02-27T02:38:19.980Z,95676.53
2023-02-27T02:40:46.355Z,95658.72
2023-02-27T02:43:12.728Z,95667.13
2023-02-27T02:45:39.093Z,95680.25
2023-02-27T02:48:05.479Z,95682.19
2023-02-27T02:50:31.844Z,95667.47
2023-02-27T02:52:59.246Z,95663.34
2023-02-27T02:55:25.785Z,95669.00
2023-02-27T02:57:52.203Z,95674.56
2023-02-27T03:00:18.594Z,95674.94
2023-02-27T03:02:44.970Z,95681.06
2023-02-27T03:05:11.338Z,95685.56
2023-02-27T03:07:37.731Z,95684.34
2023-02-27T03:10:04.142Z,95675.91
2023-02-27T03:12:30.529Z,95681.84
2023-02-27T03:14:56.888Z,95687.38
2023-02-27T03:17:23.221Z,95682.31
2023-02-27T03:19:49.568Z,95687.16
2023-02-27T03:22:15.919Z,95691.78
2023-02-27T03:24:42.320Z,95696.03
2023-02-27T03:27:08.704Z,95686.56
2023-02-27T03:29:35.086Z,95693.22
2023-02-27T03:32:01.558Z,95698.25
2023-02-27T03:34:27.935Z,95701.19
2023-02-27T03:36:54.319Z,95696.09
2023-02-27T03:39:20.681Z,95713.78
2023-02-27T03:41:47.056Z,95709.16
2023-02-27T03:44:13.449Z,95711.19
2023-02-27T03:46:39.852Z,95709.25
2023-02-27T03:49:06.242Z,95721.59
2023-02-27T03:51:32.637Z,95719.53
2023-02-27T03:53:58.980Z,95726.03
2023-02-27T03:56:25.382Z,95721.41
2023-02-27T03:58:51.758Z,95731.59
2023-02-27T04:01:18.159Z,95736.47
2023-02-27T04:03:44.519Z,95737.97
2023-02-27T04:06:10.871Z,95743.38
2023-02-27T04:08:37.222Z,95741.06
2023-02-27T04:11:03.603Z,95747.63
2023-02-27T04:13:29.998Z,95735.16
2023-02-27T04:15:56.357Z,95743.75
2023-02-27T04:18:22.731Z,95732.84
2023-02-27T04:20:49.083Z,95765.28
2023-02-27T04:23:15.464Z,95753.19
2023-02-27T04:25:41.835Z,95749.44
2023-02-27T04:28:08.205Z,95743.06
2023-02-27T04:30:34.551Z,95754.50
2023-02-27T04:33:00.930Z,95764.09
2023-02-27T04:35:27.337Z,95768.22
2023-02-27T04:37:53.693Z,95768.22
2023-02-27T04:40:20.073Z,95768.28
2023-02-27T04:42:46.427Z,95781.22
2023-02-27T04:45:15.129Z,95779.84
2023-02-27T04:47:41.656Z,95783.44
2023-02-27T04:50:08.000Z,95789.09
2023-02-27T04:52:34.372Z,95783.81
2023-02-27T04:55:00.709Z,95794.25
2023-02-27T04:57:27.106Z,95802.31
2023-02-27T04:59:53.489Z,95796.34
2023-02-27T05:02:20.014Z,95801.56
2023-02-27T05:04:46.431Z,95802.91
2023-02-27T05:07:12.818Z,95817.69
2023-02-27T05:09:39.177Z,95810.84
2023-02-27T05:12:05.539Z,95818.38
2023-02-27T05:14:31.885Z,95845.72
2023-02-27T05:16:58.283Z,95826.78
2023-02-27T05:19:24.649Z,95815.59
2023-02-27T05:21:51.012Z,95808.97
2023-02-27T05:24:17.403Z,95813.88
2023-02-27T05:26:43.752Z,95819.34
2023-02-27T05:29:10.087Z,95824.16
2023-02-27T05:31:36.501Z,95816.34
2023-02-27T05:34:02.912Z,95820.13
2023-02-27T05:36:29.290Z,95824.50
2023-02-27T05:38:55.642Z,95819.09
2023-02-27T05:41:22.015Z,95831.88
2023-02-27T05:43:48.369Z,95834.19
2023-02-27T05:46:14.820Z,95833.25
2023-02-27T05:48:41.184Z,95839.81
2023-02-27T05:51:07.526Z,95836.03
2023-02-27T05:53:33.864Z,95826.78
2023-02-27T05:56:00.206Z,95848.38
2023-02-27T05:58:26.550Z,95840.25
2023-02-27T06:00:52.929Z,95851.13
2023-02-27T06:03:19.319Z,95850.44
2023-02-27T06:05:45.870Z,95857.50
2023-02-27T06:08:12.271Z,95855.44
2023-02-27T06:10:38.639Z,95861.06
2023-02-27T06:13:05.019Z,95862.53
2023-02-27T06:15:31.406Z,95864.59
2023-02-27T06:17:57.786Z,95859.81
2023-02-27T06:20:24.178Z,95865.84
2023-02-27T06:22:50.572Z,95862.56
2023-02-27T06:25:17.000Z,95863.22
2023-02-27T06:27:43.392Z,95870.81
2023-02-27T06:30:09.763Z,95868.59
2023-02-27T06:32:36.100Z,95877.16
2023-02-27T06:35:02.520Z,95872.19
2023-02-27T06:37:28.867Z,95887.84
2023-02-27T06:39:55.252Z,95889.16
2023-02-27T06:42:21.599Z,95903.09
2023-02-27T06:44:47.981Z,95900.00
2023-02-27T06:47:14.332Z,95904.34
2023-02-27T06:49:40.709Z,95897.03
2023-02-27T06:52:07.054Z,95904.13
2023-02-27T06:54:33.447Z,95909.75
2023-02-27T06:56:59.796Z,95912.00
2023-02-27T06:59:26.167Z,95908.06
2023-02-27T07:01:52.566Z,95902.06
2023-02-27T07:04:18.973Z,95913.38
2023-02-27T07:07:32.955Z,95926.06
2023-02-27T07:09:31.659Z,95912.13
2023-02-27T07:11:57.999Z,95914.13
2023-02-27T07:14:24.387Z,95906.16
2023-02-27T07:16:50.762Z,95907.00
2023-02-27T07:19:17.097Z,95906.91
2023-02-27T07:21:43.442Z,95926.41
2023-02-27T07:24:09.838Z,95920.56
2023-02-27T07:26:36.230Z,95931.81
2023-02-27T07:29:02.589Z,95943.63
2023-02-27T07:31:29.128Z,95941.53
2023-02-27T07:33:55.586Z,95950.59
2023-02-27T07:36:21.940Z,95948.28
2023-02-27T07:38:48.345Z,95951.16
2023-02-27T07:41:29.655Z,95944.81
2023-02-27T07:43:56.877Z,95956.94
2023-02-27T07:46:23.315Z,95964.38
2023-02-27T07:48:49.702Z,95954.06
2023-02-27T07:51:16.059Z,95960.81
2023-02-27T07:53:42.453Z,95974.09
2023-02-27T07:56:08.814Z,95969.72
2023-02-27T07:58:35.207Z,95971.94
2023-02-27T08:01:01.584Z,95988.91
2023-02-27T08:03:27.966Z,95987.81
2023-02-27T08:05:54.384Z,95989.19
2023-02-27T08:08:20.759Z,96003.53
2023-02-27T08:10:47.147Z,95993.94
2023-02-27T08:13:13.538Z,95999.63
2023-02-27T08:15:39.921Z,96008.44
2023-02-27T08:18:06.353Z,96006.94
2023-02-27T08:20:32.708Z,96002.50
2023-02-27T08:22:59.089Z,96008.81
2023-02-27T08:25:25.467Z,96016.34
2023-02-27T08:27:51.863Z,96001.72
2023-02-27T08:30:18.252Z,96027.59
2023-02-27T08:32:44.792Z,96025.25
2023-02-27T08:35:11.186Z,96016.00
2023-02-27T08:37:37.580Z,96027.66
2023-02-27T08:40:03.931Z,96018.34
2023-02-27T08:42:30.306Z,96041.06
2023-02-27T08:44:56.669Z,96039.91
2023-02-27T08:47:23.094Z,96065.25
2023-02-27T08:49:49.514Z,96051.75
2023-02-27T08:52:15.854Z,96050.72
2023-02-27T08:54:42.188Z,96055.88
2023-02-27T08:57:08.609Z,96069.53
2023-02-27T08:59:35.010Z,96066.78
2023-02-27T09:02:01.356Z,96095.84
2023-02-27T09:04:27.704Z,96077.25
2023-02-27T09:06:54.094Z,96064.44
2023-02-27T09:09:20.530Z,96072.28
2023-02-27T09:11:46.928Z,96072.72
2023-02-27T09:14:13.349Z,96075.06
2023-02-27T09:16:39.851Z,96080.03
2023-02-27T09:19:06.231Z,96092.19
2023-02-27T09:21:32.625Z,96089.06
2023-02-27T09:24:02.641Z,96077.31
2023-02-27T09:26:44.982Z,96089.38
2023-02-27T09:29:12.389Z,96097.03
2023-02-27T09:31:38.836Z,96091.25
2023-02-27T09:34:05.237Z,96104.50
2023-02-27T09:36:31.611Z,96102.38
2023-02-27T09:38:58.021Z,96105.66
2023-02-27T09:41:24.541Z,96103.78
2023-02-27T09:43:50.950Z,96111.97
2023-02-27T09:46:17.415Z,96114.81
2023-02-27T09:48:43.796Z,96123.47
2023-02-27T09:51:10.149Z,96122.38
2023-02-27T09:53:36.499Z,96118.00
2023-02-27T09:56:03.973Z,96121.13
2023-02-27T09:58:30.368Z,96123.47
2023-02-27T10:00:56.722Z,96128.69
2023-02-27T10:03:23.171Z,96131.09
2023-02-27T10:05:49.563Z,96134.00
2023-02-27T10:08:15.960Z,96136.84
2023-02-27T10:10:42.345Z,96147.56
2023-02-27T10:13:08.706Z,96154.13
2023-02-27T10:15:35.113Z,96153.88
2023-02-27T10:18:07.547Z,96149.66
2023-02-27T10:20:43.017Z,96159.03
2023-02-27T10:23:09.374Z,96162.31
2023-02-27T10:25:35.716Z,96168.16
2023-02-27T10:28:02.084Z,96153.88
2023-02-27T10:30:30.905Z,96172.00
2023-02-27T10:32:58.260Z,96172.22
2023-02-27T10:35:24.657Z,96185.19
2023-02-27T10:37:51.018Z,96184.81
2023-02-27T10:40:17.400Z,96179.50
2023-02-27T10:42:43.784Z,96175.81
2023-02-27T10:45:10.172Z,96182.28
2023-02-27T10:47:36.518Z,96194.19
2023-02-27T10:50:02.906Z,96204.53
2023-02-27T10:52:29.244Z,96214.16
2023-02-27T10:54:55.633Z,96196.91
2023-02-27T10:57:22.015Z,96199.91
2023-02-27T10:59:48.378Z,96209.41
2023-02-27T11:02:14.763Z,96191.50
2023-02-27T11:04:41.158Z,96215.19
2023-02-27T11:07:07.578Z,96205.47
2023-02-27T11:09:33.953Z,96202.22
2023-02-27T11:12:00.314Z,96201.38
2023-02-27T11:14:26.889Z,96216.28
2023-02-27T11:16:53.283Z,96206.69
2023-02-27T11:19:19.666Z,96201.66
2023-02-27T11:21:46.070Z,96198.56
2023-02-27T11:24:12.428Z,96198.38
2023-02-27T11:26:38.892Z,96198.44
2023-02-27T11:29:05.286Z,96197.34
2023-02-27T11:31:31.775Z,96192.44
2023-02-27T11:33:58.197Z,96202.63
2023-02-27T11:36:24.630Z,96197.41
2023-02-27T11:38:50.995Z,96197.81
2023-02-27T11:41:17.345Z,96195.31
2023-02-27T11:43:43.723Z,96192.41
2023-02-27T11:46:44.160Z,96208.94
2023-02-27T11:48:56.510Z,96198.06
2023-02-27T11:51:22.926Z,96217.03
2023-02-27T11:53:49.318Z,96205.59
2023-02-27T11:56:15.698Z,96201.53
2023-02-27T11:58:42.096Z,96208.28
2023-02-27T12:01:08.438Z,96199.06
2023-02-27T12:03:34.862Z,96204.31
2023-02-27T12:06:01.262Z,96191.28
2023-02-27T12:08:27.622Z,96196.97
2023-02-27T12:10:57.238Z,96196.16
2023-02-27T12:13:25.700Z,96196.78
2023-02-27T12:15:52.106Z,96195.25
2023-02-27T12:18:18.526Z,96199.94
2023-02-27T12:20:44.919Z,96199.09
2023-02-27T12:23:11.258Z,96196.72
2023-02-27T12:25:37.640Z,96198.09
2023-02-27T12:28:03.994Z,96191.91
2023-02-27T12:30:30.360Z,96189.69
2023-02-27T12:32:56.736Z,96198.75
2023-02-27T12:35:23.096Z,96198.75
2023-02-27T12:37:49.464Z,96196.16
2023-02-27T12:40:15.825Z,96195.19
2023-02-27T12:42:42.202Z,96192.25
2023-02-27T12:45:08.571Z,96207.59
2023-02-27T12:47:35.000Z,96203.72
2023-02-27T12:50:01.404Z,96207.19
2023-02-27T12:52:28.020Z,96195.19
2023-02-27T12:54:54.413Z,96190.13
2023-02-27T12:57:20.797Z,96186.88
2023-02-27T12:59:47.244Z,96196.50
2023-02-27T13:02:13.612Z,96191.00
2023-02-27T13:04:39.999Z,96192.28
2023-02-27T13:07:06.387Z,96200.09
2023-02-27T13:09:32.768Z,96200.72
2023-02-27T13:11:59.116Z,96191.91
2023-02-27T13:14:25.488Z,96192.16
2023-02-27T13:16:51.926Z,96188.84
2023-02-27T13:19:18.306Z,96200.19
2023-02-27T13:21:44.643Z,96192.28
2023-02-27T13:24:10.975Z,96197.84
2023-02-27T13:26:37.382Z,96206.53
2023-02-27T13:29:03.736Z,96190.88
2023-02-27T13:31:30.459Z,96194.72
2023-02-27T13:33:57.074Z,96203.00
2023-02-27T13:36:24.585Z,96199.44
2023-02-27T13:38:51.066Z,96203.13
2023-02-27T13:41:17.440Z,96202.50
2023-02-27T13:43:52.104Z,96205.22
2023-02-27T13:46:19.116Z,96212.91
2023-02-27T13:48:45.538Z,96204.97
2023-02-27T13:51:11.971Z,96207.63
2023-02-27T13:53:38.383Z,96214.91
2023-02-27T13:56:04.731Z,96219.88
2023-02-27T13:58:31.120Z,96208.03
2023-02-27T14:00:57.490Z,96210.16
2023-02-27T14:03:23.887Z,96212.47
2023-02-27T14:05:50.274Z,96207.34
2023-02-27T14:08:16.689Z,96210.72
2023-02-27T14:10:43.104Z,96213.47
2023-02-27T14:13:09.459Z,96224.91
2023-02-27T14:15:35.946Z,96225.47
2023-02-27T14:18:14.215Z,96211.50
2023-02-27T14:20:46.587Z,96214.25
2023-02-27T14:23:12.976Z,96214.94
2023-02-27T14:25:39.337Z,96219.03
2023-02-27T14:28:05.713Z,96218.19
2023-02-27T14:30:32.110Z,96208.31
2023-02-27T14:32:58.451Z,96212.41
2023-02-27T14:35:24.853Z,96207.56
2023-02-27T14:37:51.200Z,96217.72
2023-02-27T14:40:28.071Z,96209.84
2023-02-27T14:42:55.977Z,96196.31
2023-02-27T14:45:24.306Z,96215.53
2023-02-27T14:47:50.957Z,96196.53
2023-02-27T14:50:17.349Z,96219.00
2023-02-27T14:52:43.722Z,96215.91
2023-02-27T14:55:10.072Z,96210.00
2023-02-27T14:57:36.485Z,96208.97
2023-02-27T15:00:02.915Z,96211.75
2023-02-27T15:02:29.309Z,96213.38
2023-02-27T15:04:55.781Z,96219.53
2023-02-27T15:07:22.202Z,96223.00
2023-02-27T15:09:48.602Z,96227.50
2023-02-27T15:12:15.001Z,96227.00
2023-02-27T15:14:41.389Z,96225.22
2023-02-27T15:17:07.814Z,96222.03
2023-02-27T15:19:34.173Z,96223.34
2023-02-27T15:22:00.583Z,96227.97
2023-02-27T15:24:26.943Z,96221.34
2023-02-27T15:26:53.544Z,96227.91
2023-02-27T15:29:19.879Z,96236.75
2023-02-27T15:31:46.341Z,96235.31
2023-02-27T15:34:12.792Z,96239.22
2023-02-27T15:36:39.155Z,96234.41
2023-02-27T15:39:05.534Z,96239.13
2023-02-27T15:41:31.980Z,96236.63
2023-02-27T15:43:58.380Z,96238.97
2023-02-27T15:46:24.805Z,96242.00
2023-02-27T15:48:51.181Z,96245.28
2023-02-27T15:51:17.521Z,96247.16
2023-02-27T15:53:43.907Z,96251.09
2023-02-27T15:56:10.248Z,96258.22
2023-02-27T15:58:36.648Z,96251.06
2023-02-27T16:01:03.037Z,96257.13
2023-02-27T16:03:29.396Z,96258.72
2023-02-27T16:05:55.769Z,96269.97
2023-02-27T16:08:22.173Z,96268.38
2023-02-27T16:10:48.550Z,96275.06
2023-02-27T16:13:14.900Z,96270.53
2023-02-27T16:15:41.255Z,96272.47
2023-02-27T16:18:07.642Z,96273.28
2023-02-27T16:20:34.071Z,96271.22
2023-02-27T16:23:00.426Z,96285.22
2023-02-27T16:25:26.777Z,96277.09
2023-02-27T16:27:53.172Z,96281.78
2023-02-27T16:30:19.528Z,96289.97
2023-02-27T16:32:45.964Z,96297.16
2023-02-27T16:35:12.420Z,96307.81
2023-02-27T16:37:38.787Z,96308.03
2023-02-27T16:40:05.156Z,96308.72
2023-02-27T16:42:31.563Z,96302.41
2023-02-27T16:44:57.973Z,96305.28
2023-02-27T16:47:24.325Z,96299.78
2023-02-27T16:49:50.675Z,96320.59
2023-02-27T16:52:17.093Z,96310.81
2023-02-27T16:54:43.503Z,96308.19
2023-02-27T16:57:09.883Z,96314.91
2023-02-27T16:59:36.294Z,96312.09
2023-02-27T17:02:02.745Z,96318.81
2023-02-27T17:04:29.176Z,96314.91
2023-02-27T17:06:55.602Z,96315.78
2023-02-27T17:09:21.976Z,96319.00
2023-02-27T17:11:48.315Z,96323.34
2023-02-27T17:14:14.722Z,96325.63
2023-02-27T17:16:41.116Z,96324.00
2023-02-27T17:19:07.539Z,96332.47
2023-02-27T17:21:33.938Z,96336.41
2023-02-27T17:24:00.295Z,96343.72
2023-02-27T17:26:26.830Z,96339.50
2023-02-27T17:28:53.380Z,96348.22
2023-02-27T17:31:19.767Z,96354.25
2023-02-27T17:33:46.171Z,96346.66
2023-02-27T17:36:12.607Z,96359.44
2023-02-27T17:38:38.964Z,96349.47
2023-02-27T17:41:05.307Z,96352.97
2023-02-27T17:43:31.690Z,96356.56
2023-02-27T17:45:58.114Z,96358.38
2023-02-27T17:48:24.507Z,96364.88
2023-02-27T17:50:50.875Z,96370.28
2023-02-27T17:53:17.234Z,96365.06
2023-02-27T17:55:43.601Z,96384.63
2023-02-27T17:58:09.986Z,96377.59
2023-02-27T18:00:36.402Z,96379.25
2023-02-27T18:03:02.829Z,96376.94
2023-02-27T18:05:29.194Z,96381.06
2023-02-27T18:07:55.645Z,96386.28
2023-02-27T18:10:22.055Z,96389.47
2023-02-27T18:12:48.419Z,96389.97
2023-02-27T18:15:14.813Z,96392.28
2023-02-27T18:17:41.218Z,96391.47
2023-02-27T18:20:07.582Z,96391.72
2023-02-27T18:22:33.958Z,96391.81
2023-02-27T18:25:00.324Z,96388.19
2023-02-27T18:27:26.736Z,96388.81
2023-02-27T18:29:53.139Z,96389.16
2023-02-27T18:32:19.573Z,96390.44
2023-02-27T18:34:45.937Z,96400.41
2023-02-27T18:37:12.275Z,96399.88
2023-02-27T18:39:38.670Z,96400.84
2023-02-27T18:42:06.722Z,96406.59
2023-02-27T18:44:33.244Z,96403.09
2023-02-27T18:46:59.669Z,96405.00
2023-02-27T18:49:26.082Z,96406.31
2023-02-27T18:51:52.472Z,96393.44
2023-02-27T18:54:18.874Z,96387.28
2023-02-27T18:56:45.239Z,96406.59
2023-02-27T18:59:11.630Z,96395.31
2023-02-27T19:01:37.986Z,96406.66
2023-02-27T19:04:04.439Z,96385.31
2023-02-27T19:06:31.060Z,96401.34
2023-02-27T19:08:57.562Z,96414.16
2023-02-27T19:11:23.945Z,96412.41
2023-02-27T19:13:50.290Z,96403.69
2023-02-27T19:16:16.721Z,96410.97
2023-02-27T19:18:43.173Z,96414.03
2023-02-27T19:21:09.538Z,96410.16
2023-02-27T19:23:36.044Z,96413.38
2023-02-27T19:26:02.476Z,96414.97
2023-02-27T19:28:28.862Z,96420.31
2023-02-27T19:30:55.247Z,96411.25
2023-02-27T19:33:21.645Z,96408.31
2023-02-27T19:35:48.061Z,96420.06
2023-02-27T19:38:14.460Z,96415.66
2023-02-27T19:40:40.805Z,96419.19
2023-02-27T19:43:07.166Z,96415.25
2023-02-27T19:45:33.524Z,96403.84
2023-02-27T19:47:59.875Z,96409.16
2023-02-27T19:50:26.314Z,96424.34
2023-02-27T19:52:52.745Z,96420.94
2023-02-27T19:55:19.106Z,96422.44
2023-02-27T19:57:45.501Z,96428.53
2023-02-27T20:00:11.856Z,96423.53
2023-02-27T20:02:38.245Z,96419.50
2023-02-27T20:05:04.644Z,96433.69
2023-02-27T20:07:31.014Z,96423.03
2023-02-27T20:09:57.421Z,96426.59
2023-02-27T20:12:23.801Z,96430.28
2023-02-27T20:14:50.186Z,96430.09
2023-02-27T20:17:16.595Z,96426.56
2023-02-27T20:19:42.938Z,96436.53
2023-02-27T20:22:09.300Z,96423.69
2023-02-27T20:24:35.683Z,96428.25
2023-02-27T20:27:02.100Z,96437.56
2023-02-27T20:29:28.538Z,96430.78
2023-02-27T20:31:55.021Z,96428.19
2023-02-27T20:34:21.426Z,96436.41
2023-02-27T20:36:47.824Z,96425.44
2023-02-27T20:39:14.231Z,96428.19
2023-02-27T20:41:40.602Z,96427.22
2023-02-27T20:44:06.968Z,96431.09
2023-02-27T20:46:33.404Z,96427.19
2023-02-27T20:48:59.795Z,96445.66
2023-02-27T20:51:26.404Z,96426.31
2023-02-27T20:53:53.213Z,96432.94
2023-02-27T20:56:19.567Z,96432.00
2023-02-27T20:58:45.956Z,96424.44
2023-02-27T21:01:12.395Z,96438.03
2023-02-27T21:03:39.151Z,96436.25
2023-02-27T21:06:05.608Z,96444.81
2023-02-27T21:08:31.998Z,96439.84
2023-02-27T21:10:58.418Z,96445.22
2023-02-27T21:13:25.104Z,96433.00
2023-02-27T21:15:51.485Z,96444.28
2023-02-27T21:18:17.913Z,96444.47
2023-02-27T21:20:44.321Z,96448.66
2023-02-27T21:23:10.677Z,96453.78
2023-02-27T21:25:37.066Z,96455.34
2023-02-27T21:28:03.481Z,96456.13
2023-02-27T21:30:29.892Z,96449.97
2023-02-27T21:32:56.962Z,96462.56
2023-02-27T21:35:23.623Z,96449.34
2023-02-27T21:37:50.225Z,96454.31
2023-02-27T21:40:16.573Z,96462.31
2023-02-27T21:42:42.958Z,96456.19
2023-02-27T21:45:09.363Z,96452.63
2023-02-27T21:47:35.727Z,96453.28
2023-02-27T21:50:02.249Z,96455.22
2023-02-27T21:52:28.637Z,96456.28
2023-02-27T21:54:55.129Z,96452.22
2023-02-27T21:57:21.492Z,96456.16
2023-02-27T21:59:47.887Z,96457.44
2023-02-27T22:02:14.235Z,96462.59
2023-02-27T22:04:40.632Z,96462.94
2023-02-27T22:07:07.041Z,96469.72
2023-02-27T22:09:33.388Z,96471.66
2023-02-27T22:11:59.737Z,96471.09
2023-02-27T22:14:26.144Z,96469.34
2023-02-27T22:16:52.514Z,96469.06
2023-02-27T22:19:18.900Z,96462.38
2023-02-27T22:21:45.250Z,96467.09
2023-02-27T22:24:11.635Z,96458.59
2023-02-27T22:26:38.027Z,96460.41
2023-02-27T22:29:04.401Z,96462.50
2023-02-27T22:31:31.393Z,96462.97
2023-02-27T22:33:58.060Z,96466.13
2023-02-27T22:36:24.402Z,96472.75
2023-02-27T22:38:50.797Z,96478.88
2023-02-27T22:41:17.156Z,96473.13
2023-02-27T22:43:43.499Z,96471.38
2023-02-27T22:46:09.929Z,96479.53
2023-02-27T22:48:36.314Z,96476.19
2023-02-27T22:51:02.659Z,96472.78
2023-02-27T22:53:29.000Z,96474.22
2023-02-27T22:55:55.353Z,96479.81
2023-02-27T22:58:21.744Z,96470.34
2023-02-27T23:00:48.149Z,96470.38
2023-02-27T23:03:14.567Z,96480.34
2023-02-27T23:05:40.910Z,96471.81
2023-02-27T23:08:07.293Z,96480.69
2023-02-27T23:10:33.691Z,96476.03
2023-02-27T23:13:00.057Z,96474.88
2023-02-27T23:15:26.463Z,96470.38
2023-02-27T23:17:58.285Z,96469.91
2023-02-27T23:20:25.077Z,96474.22
2023-02-27T23:22:51.468Z,96472.00
2023-02-27T23:25:17.863Z,96472.63
2023-02-27T23:27:44.231Z,96476.19
2023-02-27T23:30:10.630Z,96484.53
2023-02-27T23:32:37.068Z,96469.75
2023-02-27T23:35:03.494Z,96470.41
2023-02-27T23:37:29.901Z,96467.66
2023-02-27T23:39:56.256Z,96481.16
2023-02-27T23:42:22.624Z,96486.31
2023-02-27T23:44:49.010Z,96482.31
2023-02-27T23:47:15.410Z,96482.94
2023-02-27T23:49:41.806Z,96484.88
2023-02-27T23:52:08.178Z,96483.44
2023-02-27T23:54:34.538Z,96492.78
2023-02-27T23:57:00.897Z,96481.50
2023-02-27T23:59:27.286Z,96483.25
